RYR919G EICK-LEGE
Flight info
| Callsign | RYR919G |
|---|---|
| Flight time | N/A |
| Altitude | 37000 |
| Route | ORTOM1N ORTOM DCT ARKIL DCT DOLUR DCT TERKU DCT KORER UM616 TUPAR DCT CNA DCT SECHE DCT GAI DCT PPG A27 KANIG |
| Aircraft | B738/M-SDE3FGILRWY/SB1 |
Departure
| Time | 2026-05-06 08:34 |
|---|---|
| Airport | Cork International Airport (EICK) |
Arrival
| Time | N/A |
|---|---|
| Airport | Girona-Costa Brava Airport (LEGE) |
| Time | Latitude | Longitude | Altitude | Speed | Heading |
|---|---|---|---|---|---|
| 2026-05-06 08:21 | 51.84979 | -8.49137 | 502 ft | 0 kts | 70° |
| 2026-05-06 08:27 | 51.84975 | -8.49151 | 502 ft | 4 kts | 70° |
| 2026-05-06 08:27 | 51.84969 | -8.49179 | 502 ft | 4 kts | 70° |
| 2026-05-06 08:28 | 51.84959 | -8.49227 | 502 ft | 4 kts | 66° |
| 2026-05-06 08:28 | 51.84944 | -8.49259 | 502 ft | 4 kts | 24° |
| 2026-05-06 08:28 | 51.84919 | -8.49265 | 502 ft | 4 kts | 347° |
| 2026-05-06 08:28 | 51.84903 | -8.49257 | 502 ft | 4 kts | 339° |
| 2026-05-06 08:29 | 51.84896 | -8.49253 | 502 ft | 1 kts | 339° |
| 2026-05-06 08:30 | 51.84897 | -8.49254 | 502 ft | 1 kts | 339° |
| 2026-05-06 08:31 | 51.84925 | -8.49267 | 502 ft | 7 kts | 345° |
| 2026-05-06 08:31 | 51.84982 | -8.49291 | 502 ft | 9 kts | 342° |
| 2026-05-06 08:31 | 51.85051 | -8.49331 | 502 ft | 11 kts | 339° |
| 2026-05-06 08:31 | 51.85118 | -8.49372 | 502 ft | 6 kts | 340° |
| 2026-05-06 08:32 | 51.85146 | -8.49419 | 501 ft | 7 kts | 286° |
| 2026-05-06 08:32 | 51.85120 | -8.49496 | 491 ft | 8 kts | 209° |
| 2026-05-06 08:32 | 51.85055 | -8.49545 | 482 ft | 13 kts | 205° |
| 2026-05-06 08:32 | 51.84978 | -8.49598 | 484 ft | 10 kts | 191° |
| 2026-05-06 08:33 | 51.84939 | -8.49586 | 488 ft | 0 kts | 160° |
| 2026-05-06 08:33 | 51.84828 | -8.49520 | 490 ft | 52 kts | 160° |
| 2026-05-06 08:33 | 51.84236 | -8.49172 | 479 ft | 127 kts | 160° |
| 2026-05-06 08:33 | 51.83202 | -8.48558 | 565 ft | 179 kts | 160° |
| 2026-05-06 08:34 | 51.82072 | -8.47849 | 1526 ft | 171 kts | 147° |
| 2026-05-06 08:34 | 51.81077 | -8.44532 | 3085 ft | 189 kts | 115° |
| 2026-05-06 08:34 | 51.80031 | -8.43025 | 3351 ft | 222 kts | 159° |
| 2026-05-06 08:35 | 51.78444 | -8.42538 | 3699 ft | 240 kts | 171° |
| 2026-05-06 08:35 | 51.76768 | -8.42158 | 4322 ft | 246 kts | 172° |
| 2026-05-06 08:35 | 51.75068 | -8.41770 | 5035 ft | 247 kts | 172° |
| 2026-05-06 08:35 | 51.73361 | -8.41372 | 5717 ft | 248 kts | 172° |
| 2026-05-06 08:36 | 51.71649 | -8.40965 | 6431 ft | 249 kts | 172° |
| 2026-05-06 08:36 | 51.69919 | -8.40547 | 6984 ft | 258 kts | 172° |
| 2026-05-06 08:36 | 51.68080 | -8.40098 | 7408 ft | 274 kts | 172° |
| 2026-05-06 08:36 | 51.66166 | -8.39626 | 8213 ft | 280 kts | 172° |
| 2026-05-06 08:37 | 51.64233 | -8.39146 | 9119 ft | 283 kts | 172° |
| 2026-05-06 08:37 | 51.62271 | -8.38658 | 9966 ft | 289 kts | 172° |
| 2026-05-06 08:37 | 51.60251 | -8.38154 | 10534 ft | 303 kts | 172° |
| 2026-05-06 08:37 | 51.58075 | -8.37612 | 10784 ft | 327 kts | 172° |
| 2026-05-06 08:38 | 51.55792 | -8.37041 | 11423 ft | 336 kts | 172° |
| 2026-05-06 08:38 | 51.53469 | -8.36460 | 12227 ft | 339 kts | 172° |
| 2026-05-06 08:38 | 51.51133 | -8.35876 | 13089 ft | 341 kts | 172° |
| 2026-05-06 08:38 | 51.48766 | -8.35284 | 13812 ft | 348 kts | 172° |
| 2026-05-06 08:39 | 51.46356 | -8.34683 | 14500 ft | 352 kts | 172° |
| 2026-05-06 08:39 | 51.43919 | -8.34075 | 15216 ft | 356 kts | 172° |
| 2026-05-06 08:39 | 51.41460 | -8.33463 | 15964 ft | 359 kts | 172° |
| 2026-05-06 08:39 | 51.38988 | -8.32848 | 16696 ft | 362 kts | 172° |
| 2026-05-06 08:40 | 51.36484 | -8.32226 | 17393 ft | 366 kts | 172° |
| 2026-05-06 08:40 | 51.33954 | -8.31598 | 18084 ft | 370 kts | 172° |
| 2026-05-06 08:40 | 51.31394 | -8.30964 | 18711 ft | 374 kts | 173° |
| 2026-05-06 08:40 | 51.28811 | -8.30325 | 19316 ft | 377 kts | 173° |
| 2026-05-06 08:41 | 51.26208 | -8.29618 | 19911 ft | 382 kts | 169° |
| 2026-05-06 08:41 | 51.23629 | -8.28514 | 20495 ft | 386 kts | 165° |
| 2026-05-06 08:41 | 51.21054 | -8.27206 | 21097 ft | 390 kts | 163° |
| 2026-05-06 08:41 | 51.18463 | -8.25837 | 21674 ft | 394 kts | 163° |
| 2026-05-06 08:42 | 51.15850 | -8.24468 | 22241 ft | 397 kts | 163° |
| 2026-05-06 08:42 | 51.13203 | -8.23109 | 22797 ft | 401 kts | 164° |
| 2026-05-06 08:42 | 51.10532 | -8.21764 | 23346 ft | 404 kts | 165° |
| 2026-05-06 08:42 | 51.07834 | -8.20424 | 23833 ft | 408 kts | 165° |
| 2026-05-06 08:43 | 51.05115 | -8.19086 | 24297 ft | 411 kts | 165° |
| 2026-05-06 08:43 | 51.02379 | -8.17746 | 24777 ft | 412 kts | 165° |
| 2026-05-06 08:43 | 50.99637 | -8.16406 | 25247 ft | 414 kts | 165° |
| 2026-05-06 08:43 | 50.96872 | -8.15058 | 25683 ft | 417 kts | 165° |
| 2026-05-06 08:44 | 50.94083 | -8.13699 | 26114 ft | 420 kts | 165° |
| 2026-05-06 08:44 | 50.91282 | -8.12335 | 26541 ft | 423 kts | 165° |
| 2026-05-06 08:44 | 50.88463 | -8.10965 | 26963 ft | 425 kts | 165° |
| 2026-05-06 08:44 | 50.85625 | -8.09586 | 27375 ft | 428 kts | 165° |
| 2026-05-06 08:45 | 50.82771 | -8.08201 | 27768 ft | 430 kts | 165° |
| 2026-05-06 08:45 | 50.79901 | -8.06810 | 28163 ft | 433 kts | 165° |
| 2026-05-06 08:45 | 50.77016 | -8.05413 | 28552 ft | 435 kts | 165° |
| 2026-05-06 08:45 | 50.74108 | -8.04007 | 28921 ft | 438 kts | 165° |
| 2026-05-06 08:46 | 50.71188 | -8.02598 | 29296 ft | 440 kts | 165° |
| 2026-05-06 08:46 | 50.68296 | -8.00958 | 29627 ft | 446 kts | 155° |
| 2026-05-06 08:46 | 50.65700 | -7.98238 | 29955 ft | 453 kts | 140° |
| 2026-05-06 08:46 | 50.63583 | -7.94547 | 30277 ft | 458 kts | 125° |
| 2026-05-06 08:47 | 50.61922 | -7.90254 | 30579 ft | 460 kts | 121° |
| 2026-05-06 08:47 | 50.60311 | -7.85890 | 30840 ft | 462 kts | 121° |
| 2026-05-06 08:47 | 50.58701 | -7.81506 | 31162 ft | 463 kts | 121° |
| 2026-05-06 08:47 | 50.57085 | -7.77134 | 31547 ft | 461 kts | 121° |
| 2026-05-06 08:48 | 50.55464 | -7.72796 | 31979 ft | 459 kts | 122° |
| 2026-05-06 08:48 | 50.53836 | -7.68480 | 32363 ft | 458 kts | 122° |
| 2026-05-06 08:48 | 50.52201 | -7.64178 | 32706 ft | 458 kts | 122° |
| 2026-05-06 08:48 | 50.50561 | -7.59885 | 33051 ft | 458 kts | 122° |
| 2026-05-06 08:49 | 50.48920 | -7.55603 | 33422 ft | 457 kts | 122° |
| 2026-05-06 08:49 | 50.47282 | -7.51338 | 33788 ft | 456 kts | 122° |